sensor_id;sensor_type;location;lat;lon;timestamp;pressure;altitude;pressure_sealevel;temperature;humidity
43770;BME280;6597;52.218;9.882;2023-02-28T00:01:38;102344.94;;;-0.25;100.00
43770;BME280;6597;52.218;9.882;2023-02-28T00:04:04;102341.38;;;-0.29;100.00
43770;BME280;6597;52.218;9.882;2023-02-28T00:06:31;102342.19;;;-0.30;100.00
43770;BME280;6597;52.218;9.882;2023-02-28T00:08:58;102340.50;;;-0.29;100.00
43770;BME280;6597;52.218;9.882;2023-02-28T00:11:24;102340.44;;;-0.31;100.00
43770;BME280;6597;52.218;9.882;2023-02-28T00:13:52;102340.31;;;-0.34;100.00
43770;BME280;6597;52.218;9.882;2023-02-28T00:16:20;102338.56;;;-0.35;100.00
43770;BME280;6597;52.218;9.882;2023-02-28T00:18:47;102341.19;;;-0.34;100.00
43770;BME280;6597;52.218;9.882;2023-02-28T00:21:15;102334.94;;;-0.40;100.00
43770;BME280;6597;52.218;9.882;2023-02-28T00:23:42;102340.00;;;-0.43;100.00
43770;BME280;6597;52.218;9.882;2023-02-28T00:26:09;102338.13;;;-0.47;100.00
43770;BME280;6597;52.218;9.882;2023-02-28T00:28:36;102350.06;;;-0.51;100.00
43770;BME280;6597;52.218;9.882;2023-02-28T00:31:04;102339.53;;;-0.57;100.00
43770;BME280;6597;52.218;9.882;2023-02-28T00:33:31;102343.53;;;-0.65;100.00
43770;BME280;6597;52.218;9.882;2023-02-28T00:36:05;102338.78;;;-0.77;100.00
43770;BME280;6597;52.218;9.882;2023-02-28T00:38:35;102339.19;;;-0.90;100.00
43770;BME280;6597;52.218;9.882;2023-02-28T00:41:02;102332.72;;;-1.01;100.00
43770;BME280;6597;52.218;9.882;2023-02-28T00:43:31;102332.34;;;-1.12;100.00
43770;BME280;6597;52.218;9.882;2023-02-28T00:45:58;102327.72;;;-1.20;100.00
43770;BME280;6597;52.218;9.882;2023-02-28T00:48:26;102330.84;;;-1.29;100.00
43770;BME280;6597;52.218;9.882;2023-02-28T00:50:52;102338.28;;;-1.35;100.00
43770;BME280;6597;52.218;9.882;2023-02-28T00:53:19;102337.94;;;-1.44;100.00
43770;BME280;6597;52.218;9.882;2023-02-28T00:55:46;102336.84;;;-1.51;100.00
43770;BME280;6597;52.218;9.882;2023-02-28T00:58:12;102338.19;;;-1.61;100.00
43770;BME280;6597;52.218;9.882;2023-02-28T01:00:39;102344.69;;;-1.69;100.00
43770;BME280;6597;52.218;9.882;2023-02-28T01:03:05;102345.97;;;-1.80;100.00
43770;BME280;6597;52.218;9.882;2023-02-28T01:05:33;102343.03;;;-1.89;100.00
43770;BME280;6597;52.218;9.882;2023-02-28T01:08:00;102344.53;;;-1.94;100.00
43770;BME280;6597;52.218;9.882;2023-02-28T01:10:28;102342.31;;;-2.06;100.00
43770;BME280;6597;52.218;9.882;2023-02-28T01:12:56;102347.41;;;-2.07;100.00
43770;BME280;6597;52.218;9.882;2023-02-28T01:15:23;102340.38;;;-2.11;100.00
43770;BME280;6597;52.218;9.882;2023-02-28T01:17:49;102342.88;;;-2.13;100.00
43770;BME280;6597;52.218;9.882;2023-02-28T01:20:16;102340.81;;;-2.22;100.00
43770;BME280;6597;52.218;9.882;2023-02-28T01:22:44;102338.78;;;-2.29;100.00
43770;BME280;6597;52.218;9.882;2023-02-28T01:25:11;102345.41;;;-2.34;100.00
43770;BME280;6597;52.218;9.882;2023-02-28T01:27:38;102342.72;;;-2.37;100.00
43770;BME280;6597;52.218;9.882;2023-02-28T01:30:06;102350.19;;;-2.43;100.00
43770;BME280;6597;52.218;9.882;2023-02-28T01:32:33;102348.28;;;-2.47;100.00
43770;BME280;6597;52.218;9.882;2023-02-28T01:34:59;102342.94;;;-2.52;100.00
43770;BME280;6597;52.218;9.882;2023-02-28T01:37:26;102341.94;;;-2.55;100.00
43770;BME280;6597;52.218;9.882;2023-02-28T01:39:54;102343.63;;;-2.56;100.00
43770;BME280;6597;52.218;9.882;2023-02-28T01:42:21;102327.84;;;-2.63;100.00
43770;BME280;6597;52.218;9.882;2023-02-28T01:44:58;102343.81;;;-2.70;100.00
43770;BME280;6597;52.218;9.882;2023-02-28T01:47:27;102336.13;;;-2.70;100.00
43770;BME280;6597;52.218;9.882;2023-02-28T01:49:56;102334.28;;;-2.73;100.00
43770;BME280;6597;52.218;9.882;2023-02-28T01:52:23;102335.03;;;-2.75;100.00
43770;BME280;6597;52.218;9.882;2023-02-28T01:54:56;102328.75;;;-2.82;100.00
43770;BME280;6597;52.218;9.882;2023-02-28T01:57:29;102330.09;;;-2.90;100.00
43770;BME280;6597;52.218;9.882;2023-02-28T02:00:05;102330.69;;;-2.96;100.00
43770;BME280;6597;52.218;9.882;2023-02-28T02:02:47;102329.59;;;-3.01;100.00
43770;BME280;6597;52.218;9.882;2023-02-28T02:05:17;102332.03;;;-3.04;100.00
43770;BME280;6597;52.218;9.882;2023-02-28T02:07:45;102326.75;;;-3.07;100.00
43770;BME280;6597;52.218;9.882;2023-02-28T02:10:16;102326.63;;;-3.10;100.00
43770;BME280;6597;52.218;9.882;2023-02-28T02:13:01;102322.78;;;-3.20;100.00
43770;BME280;6597;52.218;9.882;2023-02-28T02:15:34;102318.50;;;-3.19;100.00
43770;BME280;6597;52.218;9.882;2023-02-28T02:18:10;102314.31;;;-3.17;100.00
43770;BME280;6597;52.218;9.882;2023-02-28T02:21:14;102320.19;;;-3.20;100.00
43770;BME280;6597;52.218;9.882;2023-02-28T02:24:01;102315.56;;;-3.27;100.00
43770;BME280;6597;52.218;9.882;2023-02-28T02:27:06;102321.31;;;-3.32;100.00
43770;BME280;6597;52.218;9.882;2023-02-28T02:29:43;102311.72;;;-3.36;100.00
43770;BME280;6597;52.218;9.882;2023-02-28T02:32:28;102307.31;;;-3.39;100.00
43770;BME280;6597;52.218;9.882;2023-02-28T02:35:11;102306.16;;;-3.46;100.00
43770;BME280;6597;52.218;9.882;2023-02-28T02:37:43;102300.88;;;-3.49;100.00
43770;BME280;6597;52.218;9.882;2023-02-28T02:40:16;102306.91;;;-3.48;100.00
43770;BME280;6597;52.218;9.882;2023-02-28T02:42:49;102300.75;;;-3.52;100.00
43770;BME280;6597;52.218;9.882;2023-02-28T02:45:22;102298.66;;;-3.59;100.00
43770;BME280;6597;52.218;9.882;2023-02-28T02:47:50;102308.94;;;-3.59;100.00
43770;BME280;6597;52.218;9.882;2023-02-28T02:50:21;102302.91;;;-3.59;100.00
43770;BME280;6597;52.218;9.882;2023-02-28T02:52:52;102304.63;;;-3.60;100.00
43770;BME280;6597;52.218;9.882;2023-02-28T02:55:21;102307.84;;;-3.64;100.00
43770;BME280;6597;52.218;9.882;2023-02-28T02:57:52;102308.66;;;-3.65;100.00
43770;BME280;6597;52.218;9.882;2023-02-28T03:00:22;102315.53;;;-3.64;100.00
43770;BME280;6597;52.218;9.882;2023-02-28T03:02:52;102311.28;;;-3.63;100.00
43770;BME280;6597;52.218;9.882;2023-02-28T03:05:25;102308.66;;;-3.65;100.00
43770;BME280;6597;52.218;9.882;2023-02-28T03:07:52;102313.63;;;-3.68;100.00
43770;BME280;6597;52.218;9.882;2023-02-28T03:10:31;102308.50;;;-3.68;100.00
43770;BME280;6597;52.218;9.882;2023-02-28T03:16:22;102310.78;;;-3.74;100.00
43770;BME280;6597;52.218;9.882;2023-02-28T03:18:54;102302.94;;;-3.77;100.00
43770;BME280;6597;52.218;9.882;2023-02-28T03:21:30;102305.50;;;-3.77;100.00
43770;BME280;6597;52.218;9.882;2023-02-28T03:24:03;102316.13;;;-3.69;100.00
43770;BME280;6597;52.218;9.882;2023-02-28T03:26:31;102320.53;;;-3.67;100.00
43770;BME280;6597;52.218;9.882;2023-02-28T03:29:04;102320.59;;;-3.65;100.00
43770;BME280;6597;52.218;9.882;2023-02-28T03:31:35;102315.41;;;-3.67;100.00
43770;BME280;6597;52.218;9.882;2023-02-28T03:34:06;102311.16;;;-3.66;100.00
43770;BME280;6597;52.218;9.882;2023-02-28T03:36:37;102316.13;;;-3.69;100.00
43770;BME280;6597;52.218;9.882;2023-02-28T03:39:13;102314.97;;;-3.76;100.00
43770;BME280;6597;52.218;9.882;2023-02-28T03:41:42;102307.94;;;-3.80;100.00
43770;BME280;6597;52.218;9.882;2023-02-28T03:44:12;102312.13;;;-3.82;100.00
43770;BME280;6597;52.218;9.882;2023-02-28T03:46:46;102312.84;;;-3.85;100.00
43770;BME280;6597;52.218;9.882;2023-02-28T03:49:17;102315.41;;;-3.85;100.00
43770;BME280;6597;52.218;9.882;2023-02-28T03:51:47;102312.03;;;-3.84;100.00
43770;BME280;6597;52.218;9.882;2023-02-28T03:54:18;102321.44;;;-3.84;100.00
43770;BME280;6597;52.218;9.882;2023-02-28T03:56:49;102321.28;;;-3.87;100.00
43770;BME280;6597;52.218;9.882;2023-02-28T03:59:21;102323.59;;;-3.92;100.00
43770;BME280;6597;52.218;9.882;2023-02-28T04:01:49;102315.81;;;-3.93;100.00
43770;BME280;6597;52.218;9.882;2023-02-28T04:04:17;102326.91;;;-3.94;100.00
43770;BME280;6597;52.218;9.882;2023-02-28T04:06:49;102326.75;;;-3.97;100.00
43770;BME280;6597;52.218;9.882;2023-02-28T04:09:16;102320.44;;;-4.04;100.00
43770;BME280;6597;52.218;9.882;2023-02-28T04:11:45;102321.31;;;-4.03;100.00
43770;BME280;6597;52.218;9.882;2023-02-28T04:14:12;102332.31;;;-4.06;100.00
43770;BME280;6597;52.218;9.882;2023-02-28T04:16:41;102330.41;;;-4.10;100.00
43770;BME280;6597;52.218;9.882;2023-02-28T04:19:10;102333.56;;;-4.16;100.00
43770;BME280;6597;52.218;9.882;2023-02-28T04:21:39;102323.81;;;-4.23;100.00
43770;BME280;6597;52.218;9.882;2023-02-28T04:24:09;102336.78;;;-4.20;100.00
43770;BME280;6597;52.218;9.882;2023-02-28T04:26:40;102340.22;;;-4.19;100.00
43770;BME280;6597;52.218;9.882;2023-02-28T04:29:09;102341.25;;;-4.16;100.00
43770;BME280;6597;52.218;9.882;2023-02-28T04:31:36;102343.31;;;-4.09;100.00
43770;BME280;6597;52.218;9.882;2023-02-28T04:34:03;102336.63;;;-4.05;100.00
43770;BME280;6597;52.218;9.882;2023-02-28T04:36:30;102337.00;;;-3.97;100.00
43770;BME280;6597;52.218;9.882;2023-02-28T04:38:56;102334.91;;;-3.88;100.00
43770;BME280;6597;52.218;9.882;2023-02-28T04:41:24;102341.28;;;-3.80;100.00
43770;BME280;6597;52.218;9.882;2023-02-28T04:43:51;102331.19;;;-3.77;100.00
43770;BME280;6597;52.218;9.882;2023-02-28T04:46:18;102343.50;;;-3.70;100.00
43770;BME280;6597;52.218;9.882;2023-02-28T04:48:46;102340.13;;;-3.69;100.00
43770;BME280;6597;52.218;9.882;2023-02-28T04:51:14;102335.19;;;-3.64;100.00
43770;BME280;6597;52.218;9.882;2023-02-28T04:53:41;102348.41;;;-3.57;100.00
43770;BME280;6597;52.218;9.882;2023-02-28T04:56:12;102343.72;;;-3.48;100.00
43770;BME280;6597;52.218;9.882;2023-02-28T04:58:40;102341.03;;;-3.31;100.00
43770;BME280;6597;52.218;9.882;2023-02-28T05:01:19;102344.69;;;-3.26;100.00
43770;BME280;6597;52.218;9.882;2023-02-28T05:03:47;102343.38;;;-3.18;100.00
43770;BME280;6597;52.218;9.882;2023-02-28T05:06:14;102341.03;;;-3.14;100.00
43770;BME280;6597;52.218;9.882;2023-02-28T05:08:40;102344.00;;;-3.04;100.00
43770;BME280;6597;52.218;9.882;2023-02-28T05:11:17;102345.22;;;-2.96;100.00
43770;BME280;6597;52.218;9.882;2023-02-28T05:13:46;102344.66;;;-2.91;100.00
43770;BME280;6597;52.218;9.882;2023-02-28T05:16:14;102344.91;;;-2.85;100.00
43770;BME280;6597;52.218;9.882;2023-02-28T05:18:40;102345.13;;;-2.80;100.00
43770;BME280;6597;52.218;9.882;2023-02-28T05:21:23;102341.94;;;-2.74;100.00
43770;BME280;6597;52.218;9.882;2023-02-28T05:23:50;102342.06;;;-2.71;100.00
43770;BME280;6597;52.218;9.882;2023-02-28T05:26:17;102347.22;;;-2.71;100.00
43770;BME280;6597;52.218;9.882;2023-02-28T05:28:43;102346.25;;;-2.73;100.00
43770;BME280;6597;52.218;9.882;2023-02-28T05:31:11;102344.25;;;-2.80;100.00
43770;BME280;6597;52.218;9.882;2023-02-28T05:33:38;102343.78;;;-2.91;100.00
43770;BME280;6597;52.218;9.882;2023-02-28T05:36:05;102337.31;;;-3.01;100.00
43770;BME280;6597;52.218;9.882;2023-02-28T05:38:32;102333.25;;;-3.15;100.00
43770;BME280;6597;52.218;9.882;2023-02-28T05:40:59;102333.66;;;-3.25;100.00
43770;BME280;6597;52.218;9.882;2023-02-28T05:43:26;102339.28;;;-3.32;100.00
43770;BME280;6597;52.218;9.882;2023-02-28T05:45:52;102334.53;;;-3.42;100.00
43770;BME280;6597;52.218;9.882;2023-02-28T05:48:20;102337.69;;;-3.48;100.00
43770;BME280;6597;52.218;9.882;2023-02-28T05:50:47;102341.59;;;-3.56;100.00
43770;BME280;6597;52.218;9.882;2023-02-28T05:53:13;102339.53;;;-3.63;100.00
43770;BME280;6597;52.218;9.882;2023-02-28T05:55:40;102341.00;;;-3.68;100.00
43770;BME280;6597;52.218;9.882;2023-02-28T05:58:07;102344.88;;;-3.77;100.00
43770;BME280;6597;52.218;9.882;2023-02-28T06:00:34;102350.59;;;-3.82;100.00
43770;BME280;6597;52.218;9.882;2023-02-28T06:03:01;102347.00;;;-3.86;100.00
43770;BME280;6597;52.218;9.882;2023-02-28T06:05:29;102353.50;;;-3.92;100.00
43770;BME280;6597;52.218;9.882;2023-02-28T06:07:55;102345.59;;;-3.97;100.00
43770;BME280;6597;52.218;9.882;2023-02-28T06:10:22;102350.50;;;-4.01;100.00
43770;BME280;6597;52.218;9.882;2023-02-28T06:12:49;102356.28;;;-4.05;100.00
43770;BME280;6597;52.218;9.882;2023-02-28T06:15:15;102352.69;;;-4.09;100.00
43770;BME280;6597;52.218;9.882;2023-02-28T06:17:42;102350.19;;;-4.08;100.00
43770;BME280;6597;52.218;9.882;2023-02-28T06:20:10;102353.50;;;-4.10;100.00
43770;BME280;6597;52.218;9.882;2023-02-28T06:22:39;102359.28;;;-4.14;100.00
43770;BME280;6597;52.218;9.882;2023-02-28T06:25:07;102364.63;;;-4.10;100.00
43770;BME280;6597;52.218;9.882;2023-02-28T06:27:34;102362.13;;;-4.08;100.00
43770;BME280;6597;52.218;9.882;2023-02-28T06:30:00;102367.34;;;-4.07;100.00
43770;BME280;6597;52.218;9.882;2023-02-28T06:32:27;102367.50;;;-4.03;100.00
43770;BME280;6597;52.218;9.882;2023-02-28T06:34:53;102378.56;;;-4.04;100.00
43770;BME280;6597;52.218;9.882;2023-02-28T06:37:20;102380.47;;;-4.00;100.00
43770;BME280;6597;52.218;9.882;2023-02-28T06:39:48;102382.28;;;-3.98;100.00
43770;BME280;6597;52.218;9.882;2023-02-28T06:42:14;102386.63;;;-3.97;100.00
43770;BME280;6597;52.218;9.882;2023-02-28T06:44:41;102394.47;;;-3.94;100.00
43770;BME280;6597;52.218;9.882;2023-02-28T06:47:08;102385.00;;;-3.95;100.00
43770;BME280;6597;52.218;9.882;2023-02-28T06:49:35;102394.53;;;-3.92;100.00
43770;BME280;6597;52.218;9.882;2023-02-28T06:52:02;102395.69;;;-3.87;100.00
43770;BME280;6597;52.218;9.882;2023-02-28T06:54:29;102401.75;;;-3.85;100.00
43770;BME280;6597;52.218;9.882;2023-02-28T06:56:58;102408.16;;;-3.77;100.00
43770;BME280;6597;52.218;9.882;2023-02-28T06:59:25;102399.13;;;-3.69;100.00
43770;BME280;6597;52.218;9.882;2023-02-28T07:01:51;102403.69;;;-3.63;100.00
43770;BME280;6597;52.218;9.882;2023-02-28T07:04:18;102403.91;;;-3.59;100.00
43770;BME280;6597;52.218;9.882;2023-02-28T07:06:44;102394.91;;;-3.51;100.00
43770;BME280;6597;52.218;9.882;2023-02-28T07:09:11;102396.22;;;-3.41;100.00
43770;BME280;6597;52.218;9.882;2023-02-28T07:11:39;102400.75;;;-3.35;100.00
43770;BME280;6597;52.218;9.882;2023-02-28T07:14:07;102409.69;;;-3.27;100.00
43770;BME280;6597;52.218;9.882;2023-02-28T07:16:33;102402.47;;;-3.18;100.00
43770;BME280;6597;52.218;9.882;2023-02-28T07:19:01;102411.69;;;-3.04;100.00
43770;BME280;6597;52.218;9.882;2023-02-28T07:21:27;102410.38;;;-2.76;100.00
43770;BME280;6597;52.218;9.882;2023-02-28T07:23:55;102406.72;;;-2.04;100.00
43770;BME280;6597;52.218;9.882;2023-02-28T07:26:22;102404.06;;;-0.78;100.00
43770;BME280;6597;52.218;9.882;2023-02-28T07:28:49;102400.13;;;0.29;100.00
43770;BME280;6597;52.218;9.882;2023-02-28T07:31:17;102408.31;;;1.25;100.00
43770;BME280;6597;52.218;9.882;2023-02-28T07:33:44;102392.97;;;1.94;100.00
43770;BME280;6597;52.218;9.882;2023-02-28T07:36:13;102398.94;;;2.59;98.70
43770;BME280;6597;52.218;9.882;2023-02-28T07:38:40;102397.34;;;3.02;87.47
43770;BME280;6597;52.218;9.882;2023-02-28T07:41:07;102395.19;;;2.83;84.03
43770;BME280;6597;52.218;9.882;2023-02-28T07:43:34;102402.69;;;2.70;80.06
43770;BME280;6597;52.218;9.882;2023-02-28T07:46:02;102401.28;;;2.85;77.99
43770;BME280;6597;52.218;9.882;2023-02-28T07:48:31;102400.22;;;2.76;78.64
43770;BME280;6597;52.218;9.882;2023-02-28T07:50:58;102400.53;;;2.90;78.58
43770;BME280;6597;52.218;9.882;2023-02-28T07:53:25;102397.28;;;2.99;76.25
43770;BME280;6597;52.218;9.882;2023-02-28T07:55:54;102392.84;;;2.93;74.79
43770;BME280;6597;52.218;9.882;2023-02-28T07:58:22;102399.53;;;2.84;74.54
43770;BME280;6597;52.218;9.882;2023-02-28T08:00:48;102401.75;;;3.04;74.15
43770;BME280;6597;52.218;9.882;2023-02-28T08:03:16;102397.50;;;3.50;73.13
43770;BME280;6597;52.218;9.882;2023-02-28T08:05:44;102394.13;;;3.98;71.88
43770;BME280;6597;52.218;9.882;2023-02-28T08:08:10;102397.25;;;4.28;69.57
43770;BME280;6597;52.218;9.882;2023-02-28T08:10:37;102390.59;;;4.46;67.85
43770;BME280;6597;52.218;9.882;2023-02-28T08:13:03;102390.72;;;4.55;67.24
43770;BME280;6597;52.218;9.882;2023-02-28T08:15:30;102382.25;;;4.65;66.14
43770;BME280;6597;52.218;9.882;2023-02-28T08:17:57;102391.03;;;4.73;65.30
43770;BME280;6597;52.218;9.882;2023-02-28T08:20:24;102389.78;;;5.07;64.80
43770;BME280;6597;52.218;9.882;2023-02-28T08:22:52;102396.38;;;5.47;64.11
43770;BME280;6597;52.218;9.882;2023-02-28T08:25:19;102387.09;;;5.69;62.15
43770;BME280;6597;52.218;9.882;2023-02-28T08:27:46;102388.09;;;5.85;62.04
43770;BME280;6597;52.218;9.882;2023-02-28T08:30:14;102387.28;;;5.87;62.81
43770;BME280;6597;52.218;9.882;2023-02-28T08:32:40;102391.78;;;6.01;61.88
43770;BME280;6597;52.218;9.882;2023-02-28T08:35:08;102392.25;;;5.66;59.42
43770;BME280;6597;52.218;9.882;2023-02-28T08:37:35;102397.91;;;5.30;60.13
43770;BME280;6597;52.218;9.882;2023-02-28T08:40:04;102393.91;;;4.90;60.81
43770;BME280;6597;52.218;9.882;2023-02-28T08:42:31;102404.13;;;4.79;62.62
43770;BME280;6597;52.218;9.882;2023-02-28T08:44:58;102405.00;;;4.80;60.94
43770;BME280;6597;52.218;9.882;2023-02-28T08:47:25;102409.34;;;4.81;61.70
43770;BME280;6597;52.218;9.882;2023-02-28T08:49:51;102405.75;;;4.71;61.57
43770;BME280;6597;52.218;9.882;2023-02-28T08:52:18;102408.94;;;4.55;63.13
43770;BME280;6597;52.218;9.882;2023-02-28T08:54:44;102402.78;;;4.50;62.96
43770;BME280;6597;52.218;9.882;2023-02-28T08:57:12;102402.75;;;4.48;63.09
43770;BME280;6597;52.218;9.882;2023-02-28T08:59:39;102409.66;;;4.46;64.49
43770;BME280;6597;52.218;9.882;2023-02-28T09:02:05;102408.78;;;4.44;63.06
43770;BME280;6597;52.218;9.882;2023-02-28T09:04:33;102404.41;;;4.43;62.57
43770;BME280;6597;52.218;9.882;2023-02-28T09:06:59;102409.06;;;4.61;61.32
43770;BME280;6597;52.218;9.882;2023-02-28T09:09:26;102413.47;;;4.66;62.24
43770;BME280;6597;52.218;9.882;2023-02-28T09:11:55;102411.03;;;4.77;61.16
43770;BME280;6597;52.218;9.882;2023-02-28T09:14:22;102408.66;;;4.92;60.13
43770;BME280;6597;52.218;9.882;2023-02-28T09:16:49;102414.97;;;5.10;60.37
43770;BME280;6597;52.218;9.882;2023-02-28T09:19:16;102411.03;;;5.39;59.47
43770;BME280;6597;52.218;9.882;2023-02-28T09:21:43;102407.63;;;5.45;59.30
43770;BME280;6597;52.218;9.882;2023-02-28T09:24:09;102409.53;;;5.56;58.78
43770;BME280;6597;52.218;9.882;2023-02-28T09:26:39;102405.91;;;5.45;59.39
43770;BME280;6597;52.218;9.882;2023-02-28T09:29:06;102407.94;;;5.71;59.82
43770;BME280;6597;52.218;9.882;2023-02-28T09:31:34;102403.97;;;6.02;58.51
43770;BME280;6597;52.218;9.882;2023-02-28T09:34:00;102406.84;;;6.29;56.69
43770;BME280;6597;52.218;9.882;2023-02-28T09:36:27;102403.59;;;6.58;55.69
43770;BME280;6597;52.218;9.882;2023-02-28T09:38:55;102413.31;;;6.81;54.84
43770;BME280;6597;52.218;9.882;2023-02-28T09:41:23;102419.50;;;6.91;53.34
43770;BME280;6597;52.218;9.882;2023-02-28T09:43:56;102408.25;;;7.00;53.85
43770;BME280;6597;52.218;9.882;2023-02-28T09:46:28;102415.38;;;7.28;53.09
43770;BME280;6597;52.218;9.882;2023-02-28T09:48:59;102414.63;;;7.52;52.16
43770;BME280;6597;52.218;9.882;2023-02-28T09:51:36;102411.16;;;7.64;51.67
43770;BME280;6597;52.218;9.882;2023-02-28T09:54:04;102420.56;;;7.24;51.66
43770;BME280;6597;52.218;9.882;2023-02-28T09:56:36;102415.19;;;6.99;53.33
43770;BME280;6597;52.218;9.882;2023-02-28T09:59:09;102416.09;;;7.07;53.48
43770;BME280;6597;52.218;9.882;2023-02-28T10:01:43;102419.69;;;7.17;54.16
43770;BME280;6597;52.218;9.882;2023-02-28T10:04:28;102413.75;;;7.55;52.91
43770;BME280;6597;52.218;9.882;2023-02-28T10:07:05;102419.06;;;7.80;52.41
43770;BME280;6597;52.218;9.882;2023-02-28T10:09:45;102413.00;;;8.01;51.59
43770;BME280;6597;52.218;9.882;2023-02-28T10:12:13;102408.63;;;7.80;52.02
43770;BME280;6597;52.218;9.882;2023-02-28T10:14:45;102407.75;;;7.82;52.42
43770;BME280;6597;52.218;9.882;2023-02-28T10:17:16;102401.56;;;7.57;53.58
43770;BME280;6597;52.218;9.882;2023-02-28T10:19:56;102404.25;;;7.81;52.19
43770;BME280;6597;52.218;9.882;2023-02-28T10:22:28;102404.28;;;7.93;51.59
43770;BME280;6597;52.218;9.882;2023-02-28T10:24:57;102410.31;;;7.80;51.99
43770;BME280;6597;52.218;9.882;2023-02-28T10:27:30;102396.47;;;8.28;52.10
43770;BME280;6597;52.218;9.882;2023-02-28T10:29:59;102386.00;;;8.27;50.59
43770;BME280;6597;52.218;9.882;2023-02-28T10:32:29;102406.09;;;8.87;48.29
43770;BME280;6597;52.218;9.882;2023-02-28T10:35:00;102393.81;;;9.12;47.70
43770;BME280;6597;52.218;9.882;2023-02-28T10:37:27;102402.31;;;9.67;47.65
43770;BME280;6597;52.218;9.882;2023-02-28T10:39:54;102402.31;;;9.67;46.99
43770;BME280;6597;52.218;9.882;2023-02-28T10:42:24;102390.94;;;9.70;46.94
43770;BME280;6597;52.218;9.882;2023-02-28T10:45:11;102393.59;;;9.61;46.81
43770;BME280;6597;52.218;9.882;2023-02-28T10:47:49;102396.09;;;9.85;46.25
43770;BME280;6597;52.218;9.882;2023-02-28T10:50:35;102403.19;;;9.63;45.52
43770;BME280;6597;52.218;9.882;2023-02-28T10:53:31;102400.78;;;9.19;47.61
43770;BME280;6597;52.218;9.882;2023-02-28T10:56:00;102392.13;;;8.81;48.91
43770;BME280;6597;52.218;9.882;2023-02-28T10:58:29;102386.88;;;8.71;49.24
43770;BME280;6597;52.218;9.882;2023-02-28T11:00:56;102400.81;;;9.01;47.72
43770;BME280;6597;52.218;9.882;2023-02-28T11:03:29;102399.88;;;9.22;46.36
43770;BME280;6597;52.218;9.882;2023-02-28T11:05:57;102390.19;;;9.42;46.26
43770;BME280;6597;52.218;9.882;2023-02-28T11:08:24;102387.56;;;9.45;44.65
43770;BME280;6597;52.218;9.882;2023-02-28T11:10:55;102386.66;;;9.51;45.54
43770;BME280;6597;52.218;9.882;2023-02-28T11:13:27;102385.84;;;9.35;44.55
43770;BME280;6597;52.218;9.882;2023-02-28T11:15:57;102386.94;;;8.50;47.64
43770;BME280;6597;52.218;9.882;2023-02-28T11:18:28;102386.78;;;7.74;48.34
43770;BME280;6597;52.218;9.882;2023-02-28T11:20:59;102391.78;;;7.14;50.07
43770;BME280;6597;52.218;9.882;2023-02-28T11:23:30;102391.66;;;6.90;52.17
43770;BME280;6597;52.218;9.882;2023-02-28T11:26:00;102387.09;;;6.62;53.37
43770;BME280;6597;52.218;9.882;2023-02-28T11:28:30;102387.72;;;6.30;53.83
43770;BME280;6597;52.218;9.882;2023-02-28T11:31:14;102378.78;;;6.04;54.64
43770;BME280;6597;52.218;9.882;2023-02-28T11:33:43;102372.44;;;5.82;55.29
43770;BME280;6597;52.218;9.882;2023-02-28T11:36:15;102375.47;;;5.43;57.29
43770;BME280;6597;52.218;9.882;2023-02-28T11:38:42;102380.47;;;5.24;58.59
43770;BME280;6597;52.218;9.882;2023-02-28T11:41:22;102374.78;;;5.56;59.67
43770;BME280;6597;52.218;9.882;2023-02-28T11:44:17;102365.75;;;6.04;53.83
43770;BME280;6597;52.218;9.882;2023-02-28T11:46:50;102364.94;;;6.11;53.19
43770;BME280;6597;52.218;9.882;2023-02-28T11:49:29;102351.81;;;6.00;53.86
43770;BME280;6597;52.218;9.882;2023-02-28T11:52:01;102366.00;;;6.31;52.24
43770;BME280;6597;52.218;9.882;2023-02-28T11:57:35;102363.69;;;6.72;51.64
43770;BME280;6597;52.218;9.882;2023-02-28T12:00:11;102363.47;;;6.43;53.66
43770;BME280;6597;52.218;9.882;2023-02-28T12:02:59;102351.84;;;6.05;52.73
43770;BME280;6597;52.218;9.882;2023-02-28T12:05:34;102357.59;;;5.75;54.23
43770;BME280;6597;52.218;9.882;2023-02-28T12:08:20;102353.06;;;5.54;53.95
43770;BME280;6597;52.218;9.882;2023-02-28T12:10:59;102345.88;;;5.35;53.97
43770;BME280;6597;52.218;9.882;2023-02-28T12:13:38;102350.16;;;5.28;55.53
43770;BME280;6597;52.218;9.882;2023-02-28T12:16:19;102349.00;;;5.06;54.47
43770;BME280;6597;52.218;9.882;2023-02-28T12:19:11;102342.66;;;4.87;55.15
43770;BME280;6597;52.218;9.882;2023-02-28T12:21:52;102343.81;;;4.49;55.88
43770;BME280;6597;52.218;9.882;2023-02-28T12:24:50;102344.47;;;4.34;55.35
43770;BME280;6597;52.218;9.882;2023-02-28T12:27:22;102340.53;;;4.06;57.50
43770;BME280;6597;52.218;9.882;2023-02-28T12:29:54;102342.13;;;3.96;58.75
43770;BME280;6597;52.218;9.882;2023-02-28T12:32:26;102341.03;;;3.85;60.37
43770;BME280;6597;52.218;9.882;2023-02-28T12:34:58;102337.47;;;3.79;61.78
43770;BME280;6597;52.218;9.882;2023-02-28T12:37:30;102337.53;;;3.83;61.18
43770;BME280;6597;52.218;9.882;2023-02-28T12:40:03;102336.97;;;3.99;60.15
43770;BME280;6597;52.218;9.882;2023-02-28T12:42:39;102335.09;;;4.44;56.95
43770;BME280;6597;52.218;9.882;2023-02-28T12:45:10;102325.53;;;4.43;57.92
43770;BME280;6597;52.218;9.882;2023-02-28T12:47:41;102335.03;;;4.39;59.42
43770;BME280;6597;52.218;9.882;2023-02-28T12:50:10;102324.50;;;4.31;58.85
43770;BME280;6597;52.218;9.882;2023-02-28T12:52:43;102316.72;;;4.31;59.70
43770;BME280;6597;52.218;9.882;2023-02-28T12:55:19;102310.84;;;4.45;58.94
43770;BME280;6597;52.218;9.882;2023-02-28T12:57:52;102309.88;;;4.38;58.77
43770;BME280;6597;52.218;9.882;2023-02-28T13:00:25;102313.28;;;4.34;59.45
43770;BME280;6597;52.218;9.882;2023-02-28T13:03:32;102313.06;;;4.20;59.25
43770;BME280;6597;52.218;9.882;2023-02-28T13:06:13;102305.91;;;4.07;61.30
43770;BME280;6597;52.218;9.882;2023-02-28T13:09:02;102309.31;;;4.03;60.62
43770;BME280;6597;52.218;9.882;2023-02-28T13:11:33;102303.19;;;3.99;60.63
43770;BME280;6597;52.218;9.882;2023-02-28T13:14:05;102300.56;;;3.96;61.07
43770;BME280;6597;52.218;9.882;2023-02-28T13:16:50;102304.88;;;3.96;60.77
43770;BME280;6597;52.218;9.882;2023-02-28T13:19:19;102295.25;;;4.46;58.57
43770;BME280;6597;52.218;9.882;2023-02-28T13:21:47;102282.50;;;5.32;54.41
43770;BME280;6597;52.218;9.882;2023-02-28T13:24:39;102281.56;;;6.17;51.30